Terminal Aerodrome Forecast
Issued by NWS Central Illinois

Home | Current Version | Previous Version | Text Only | Print | Product List | Glossary On
Versions: 1 2 3 4 5 6 7 8 9 10 11 12 13 14 15 16 17 18 19 20 21 22 23 24 25 26 27 28
626
FTUS43 KILX 282334
TAFPIA
TAF
KPIA 282334Z 2900/2924 29007KT P6SM OVC045
     FM290200 34003KT 6SM BR BKN025
     FM290700 34003KT 3SM BR OVC008
     FM291500 03005KT 6SM HZ BKN015
     FM292100 10006KT P6SM BKN100=

USA.gov is the U.S. government's official web portal to all federal, state and local government web resources and services.